Time;durP1;ratioP1;P1;durP2;ratioP2;P2;SDS_P1;SDS_P2;PMS_P1;PMS_P2;Temp;Humidity;BMP_temperature;BMP_pressure;BME280_temperature;BME280_humidity;BME280_pressure;Samples;Min_cycle;Max_cycle;Signal;HPM_P1;HPM_P2
2023/05/15 00:00:26;;;;;;;;;34.75;28.50;;;;;20.04;41.39;101646.06;6305616;22;45389;-77
2023/05/15 00:02:52;;;;;;;;;30.75;25.00;;;;;20.31;41.59;101689.38;6305389;22;46896;-78
2023/05/15 00:05:17;;;;;;;;;32.00;30.00;;;;;20.23;41.54;101678.69;6305071;22;45228;-79
2023/05/15 00:07:43;;;;;;;;;33.00;29.25;;;;;20.35;41.53;101703.13;6305213;22;45348;-78
2023/05/15 00:10:08;;;;;;;;;32.00;25.75;;;;;20.33;41.78;101705.91;6305894;22;45181;-78
2023/05/15 00:12:34;;;;;;;;;29.50;24.50;;;;;20.24;41.59;101688.28;6305080;22;46548;-79
2023/05/15 00:14:59;;;;;;;;;28.00;25.00;;;;;20.32;41.93;101698.13;6305122;22;45303;-78
2023/05/15 00:17:25;;;;;;;;;36.75;27.25;;;;;20.32;41.76;101695.47;6305897;22;45274;-78
2023/05/15 00:19:50;;;;;;;;;32.50;27.25;;;;;20.17;42.04;101683.59;6304921;22;45305;-78
2023/05/15 00:22:15;;;;;;;;;36.50;27.00;;;;;20.21;41.76;101684.13;6305171;22;46177;-78
2023/05/15 00:24:41;;;;;;;;;26.25;21.00;;;;;20.31;41.90;101697.28;6305494;22;45252;-78
2023/05/15 00:27:07;;;;;;;;;32.75;26.50;;;;;20.31;41.61;101691.16;6305531;22;45306;-79
2023/05/15 00:29:32;;;;;;;;;36.75;32.25;;;;;20.29;42.08;101684.25;6305307;22;45350;-78
2023/05/15 00:31:57;;;;;;;;;41.00;32.25;;;;;20.28;42.13;101687.00;6305128;22;46219;-78
2023/05/15 00:34:23;;;;;;;;;35.50;28.50;;;;;20.28;42.24;101685.19;6302665;22;45692;-78
2023/05/15 00:36:49;;;;;;;;;39.75;29.75;;;;;20.29;41.79;101676.31;6304969;22;45276;-78
2023/05/15 00:39:14;;;;;;;;;36.50;27.00;;;;;20.24;42.24;101669.78;6305286;22;45270;-79
2023/05/15 00:41:40;;;;;;;;;34.75;30.00;;;;;20.15;41.95;101656.47;6304898;22;46261;-79
2023/05/15 00:44:07;;;;;;;;;36.00;29.25;;;;;20.10;42.11;101645.50;6304943;22;45240;-78
2023/05/15 00:46:35;;;;;;;;;34.25;28.00;;;;;20.28;42.42;101668.50;6305416;22;45239;-78
2023/05/15 00:49:02;;;;;;;;;36.25;28.75;;;;;20.17;42.47;101656.31;6304178;22;45159;-78
2023/05/15 00:51:28;;;;;;;;;41.50;32.25;;;;;20.25;42.28;101669.63;6304811;22;46278;-78
2023/05/15 00:53:55;;;;;;;;;31.00;26.00;;;;;20.25;42.51;101666.16;6305115;22;45475;-78
2023/05/15 00:56:21;;;;;;;;;34.50;26.50;;;;;20.26;42.42;101666.03;6304887;22;45287;-78
2023/05/15 00:58:48;;;;;;;;;27.75;23.50;;;;;20.20;42.78;101655.19;6304959;22;45399;-78
2023/05/15 01:01:17;;;;;;;;;26.75;22.75;;;;;20.21;42.58;101651.59;6303511;22;47134;-78
2023/05/15 01:03:43;;;;;;;;;27.50;25.25;;;;;20.25;42.82;101652.94;6304898;22;45248;-78
2023/05/15 01:06:09;;;;;;;;;29.00;25.00;;;;;20.24;42.92;101660.06;6304634;22;45213;-78
2023/05/15 01:08:45;;;;;;;;;29.25;23.50;;;;;20.27;42.51;101651.00;6304704;22;45240;-78
2023/05/15 01:11:12;;;;;;;;;31.50;25.75;;;;;20.13;42.69;101628.56;6304435;22;46990;-78
2023/05/15 01:13:38;;;;;;;;;26.75;24.25;;;;;20.15;42.66;101630.06;6304493;22;45283;-79
2023/05/15 01:16:03;;;;;;;;;30.50;24.75;;;;;20.17;42.83;101638.66;6304458;22;45246;-78
2023/05/15 01:18:32;;;;;;;;;30.25;22.00;;;;;20.23;42.75;101647.81;6305214;22;45459;-78
2023/05/15 01:21:09;;;;;;;;;24.75;21.00;;;;;20.24;43.08;101640.72;6304711;22;46311;-79
2023/05/15 01:23:46;;;;;;;;;23.25;18.25;;;;;20.24;43.00;101646.00;6304713;22;45314;-78
2023/05/15 01:26:46;;;;;;;;;19.75;18.25;;;;;20.25;42.93;101642.38;6304631;22;45182;-78
2023/05/15 01:29:20;;;;;;;;;23.25;19.25;;;;;20.23;43.33;101634.59;6305028;22;45253;-78
2023/05/15 01:31:52;;;;;;;;;21.50;16.00;;;;;19.88;43.16;101589.44;6304086;22;46402;-77
2023/05/15 01:34:25;;;;;;;;;21.00;19.25;;;;;20.21;43.44;101643.66;6304748;22;45337;-78
2023/05/15 01:36:56;;;;;;;;;17.00;12.75;;;;;20.21;43.33;101638.38;6304707;22;45250;-77
2023/05/15 01:39:26;;;;;;;;;19.50;16.75;;;;;20.17;43.78;101630.75;6305198;22;45312;-78
2023/05/15 01:42:14;;;;;;;;;22.00;16.50;;;;;20.10;43.71;101619.06;6304334;22;47274;-77
2023/05/15 01:44:44;;;;;;;;;22.00;17.00;;;;;20.08;43.68;101615.75;6304399;22;45272;-78
2023/05/15 01:47:13;;;;;;;;;25.00;17.00;;;;;20.21;43.48;101626.00;6304467;22;45433;-78
2023/05/15 01:49:41;;;;;;;;;23.50;16.50;;;;;20.16;43.71;101618.53;6304455;22;45338;-78
2023/05/15 01:52:34;;;;;;;;;21.25;16.50;;;;;19.85;43.80;101572.06;6304325;22;47239;-78
2023/05/15 01:55:06;;;;;;;;;18.75;16.75;;;;;20.15;44.07;101621.28;6291541;22;45255;-78
2023/05/15 01:57:33;;;;;;;;;19.25;18.25;;;;;20.05;43.80;101603.69;6302929;22;45238;-78
2023/05/15 02:00:00;;;;;;;;;16.50;15.50;;;;;20.13;44.21;101610.06;6304113;22;45239;-78
2023/05/15 02:02:28;;;;;;;;;20.00;18.25;;;;;20.08;44.14;101610.47;6304627;22;45198;-78
2023/05/15 02:04:54;;;;;;;;;15.00;13.50;;;;;20.05;44.01;101602.84;6304344;22;45245;-78
2023/05/15 02:07:20;;;;;;;;;14.75;14.75;;;;;20.18;43.99;101621.84;6304836;22;45300;-78
2023/05/15 02:09:47;;;;;;;;;20.00;17.00;;;;;19.82;44.06;101559.19;6304527;22;45269;-77
2023/05/15 02:12:13;;;;;;;;;17.50;14.75;;;;;20.10;43.84;101602.38;6304534;22;46022;-79
2023/05/15 02:14:40;;;;;;;;;17.00;16.00;;;;;20.02;44.18;101589.91;6303698;22;45288;-79
2023/05/15 02:17:05;;;;;;;;;16.00;14.25;;;;;19.96;44.53;101586.91;6304390;22;45260;-79
2023/05/15 02:19:31;;;;;;;;;14.75;14.25;;;;;20.05;44.60;101601.03;6304338;22;45349;-78
2023/05/15 02:21:56;;;;;;;;;21.25;13.00;;;;;20.00;44.21;101589.25;6304833;22;45663;-78
2023/05/15 02:24:21;;;;;;;;;15.00;13.00;;;;;20.07;44.46;101588.50;6304664;22;45223;-77
2023/05/15 02:27:19;;;;;;;;;16.50;13.00;;;;;20.20;44.18;101599.72;6304780;22;45229;-79
2023/05/15 02:29:47;;;;;;;;;14.50;14.50;;;;;20.20;44.23;101600.53;6279949;22;45352;-78
2023/05/15 02:32:22;;;;;;;;;16.25;15.75;;;;;20.19;44.57;101598.91;6303990;22;46335;-78
2023/05/15 02:35:06;;;;;;;;;16.50;15.50;;;;;20.20;44.25;101595.25;6304344;22;45189;-78
2023/05/15 02:37:36;;;;;;;;;16.75;14.00;;;;;20.19;44.44;101585.69;6304203;22;45344;-78
2023/05/15 02:40:05;;;;;;;;;15.75;13.25;;;;;20.17;44.46;101583.19;6304423;22;45234;-77
2023/05/15 02:42:31;;;;;;;;;15.50;13.25;;;;;20.20;44.42;101584.69;6303978;22;46948;-78
2023/05/15 02:44:57;;;;;;;;;15.00;11.50;;;;;20.03;44.33;101565.19;6304082;22;45374;-78
2023/05/15 02:47:24;;;;;;;;;17.25;12.50;;;;;20.14;44.40;101570.25;6304378;22;45245;-78
2023/05/15 02:49:50;;;;;;;;;13.75;13.00;;;;;20.22;44.62;101579.28;6304865;22;45514;-78
2023/05/15 02:52:16;;;;;;;;;20.50;15.50;;;;;20.21;44.73;101588.16;6304294;22;45316;-78
2023/05/15 02:54:41;;;;;;;;;19.50;15.00;;;;;20.21;44.78;101577.59;6303921;22;45245;-78
2023/05/15 02:57:07;;;;;;;;;11.75;11.00;;;;;20.08;44.63;101560.28;6304850;22;45252;-78
2023/05/15 02:59:32;;;;;;;;;16.75;14.75;;;;;20.14;44.75;101564.16;6303897;22;45236;-79
2023/05/15 03:01:58;;;;;;;;;19.00;15.00;;;;;20.10;44.62;101568.03;6302388;22;47499;-78
2023/05/15 03:04:23;;;;;;;;;22.75;16.50;;;;;20.14;44.72;101564.16;6304544;22;45203;-78
2023/05/15 03:06:48;;;;;;;;;16.25;14.00;;;;;20.10;44.94;101560.94;6304883;22;45288;-78
2023/05/15 03:09:14;;;;;;;;;16.25;13.00;;;;;20.12;45.03;101566.09;6304567;22;45347;-78
2023/05/15 03:11:39;;;;;;;;;17.75;15.50;;;;;20.21;45.01;101578.44;6304815;22;46129;-78
2023/05/15 03:14:04;;;;;;;;;20.50;18.00;;;;;20.18;45.44;101571.66;6303523;22;45242;-79
2023/05/15 03:16:30;;;;;;;;;21.75;15.25;;;;;20.13;44.96;101560.69;6304217;22;45258;-78
2023/05/15 03:18:55;;;;;;;;;20.25;18.00;;;;;20.15;44.98;101573.75;6304044;22;45209;-78
2023/05/15 03:21:20;;;;;;;;;18.50;15.75;;;;;20.05;45.39;101557.94;6304368;22;46156;-79
2023/05/15 03:23:46;;;;;;;;;20.50;16.25;;;;;20.12;45.30;101560.81;6304557;22;45202;-79
2023/05/15 03:26:11;;;;;;;;;20.00;18.75;;;;;20.10;45.50;101560.94;6305250;22;45157;-79
2023/05/15 03:28:37;;;;;;;;;19.25;15.00;;;;;20.08;45.09;101547.06;6305843;22;45391;-78
2023/05/15 03:31:03;;;;;;;;;24.50;17.50;;;;;20.16;45.22;101557.75;6305218;22;46978;-78
2023/05/15 03:33:30;;;;;;;;;19.50;16.00;;;;;20.06;44.98;101538.47;6305141;22;45235;-78
2023/05/15 03:35:55;;;;;;;;;23.25;19.75;;;;;20.22;44.74;101566.06;6305711;22;45276;-78
2023/05/15 03:38:21;;;;;;;;;24.50;17.75;;;;;20.04;45.11;101541.25;6304997;22;45422;-78
2023/05/15 03:40:46;;;;;;;;;23.00;18.00;;;;;20.20;44.96;101560.06;6305021;22;46137;-78
2023/05/15 03:43:11;;;;;;;;;20.00;16.50;;;;;20.13;45.13;101554.56;6304997;22;45310;-78
2023/05/15 03:45:38;;;;;;;;;22.00;20.00;;;;;20.21;44.92;101565.22;6305022;22;45402;-78
2023/05/15 03:48:04;;;;;;;;;20.50;17.00;;;;;20.20;44.89;101566.19;6305685;22;45391;-78
2023/05/15 03:50:29;;;;;;;;;21.00;18.25;;;;;20.09;44.94;101543.44;6305101;22;46456;-79
2023/05/15 03:52:54;;;;;;;;;17.50;15.75;;;;;20.21;44.99;101559.94;6303330;22;45302;-78
2023/05/15 03:55:20;;;;;;;;;23.25;17.00;;;;;20.22;44.86;101558.13;6305087;22;45253;-79
2023/05/15 03:57:45;;;;;;;;;22.25;19.00;;;;;20.12;44.89;101537.88;6305210;22;45391;-78
2023/05/15 04:00:11;;;;;;;;;26.00;16.75;;;;;20.20;44.79;101555.63;6305412;22;45856;-78
2023/05/15 04:02:37;;;;;;;;;21.75;15.75;;;;;20.10;44.38;101539.81;6305459;22;45236;-78
2023/05/15 04:05:04;;;;;;;;;23.75;16.00;;;;;20.05;44.63;101524.44;6305005;22;45281;-78
2023/05/15 04:07:31;;;;;;;;;18.50;15.75;;;;;20.22;44.74;101548.38;6305085;22;45362;-78
2023/05/15 04:10:00;;;;;;;;;20.00;17.00;;;;;20.13;44.82;101546.66;6304900;22;45347;-78
2023/05/15 04:12:28;;;;;;;;;23.50;19.75;;;;;20.13;44.89;101539.56;6304828;22;45434;-78
2023/05/15 04:14:54;;;;;;;;;23.00;19.25;;;;;20.03;45.22;101517.63;6304874;22;45204;-78
2023/05/15 04:17:19;;;;;;;;;22.00;17.00;;;;;20.13;44.84;101530.78;6305385;22;45242;-78
2023/05/15 04:19:46;;;;;;;;;14.50;14.00;;;;;20.25;45.08;101547.25;6305112;22;50795;-78
2023/05/15 04:22:12;;;;;;;;;21.25;18.25;;;;;20.25;44.84;101539.31;6304975;22;45241;-78
2023/05/15 04:24:38;;;;;;;;;18.00;17.25;;;;;20.17;44.83;101529.50;6304468;22;45275;-79
2023/05/15 04:27:03;;;;;;;;;19.75;17.00;;;;;20.20;45.03;101533.66;6305235;22;45213;-79
2023/05/15 04:29:29;;;;;;;;;23.50;19.75;;;;;20.21;44.97;101541.44;6305358;22;46064;-78
2023/05/15 04:31:54;;;;;;;;;24.00;20.00;;;;;20.23;44.95;101541.28;6305102;22;48044;-77
2023/05/15 04:34:20;;;;;;;;;20.00;15.00;;;;;20.15;44.98;101527.03;6305291;22;45298;-78
2023/05/15 04:36:45;;;;;;;;;21.50;19.00;;;;;20.27;45.07;101537.38;6303390;22;45403;-78
2023/05/15 04:39:11;;;;;;;;;22.25;19.00;;;;;20.17;45.14;101524.22;6302620;22;48010;-78
2023/05/15 04:41:36;;;;;;;;;21.00;19.50;;;;;20.16;44.92;101526.06;6305189;22;45350;-78
2023/05/15 04:44:02;;;;;;;;;21.75;19.00;;;;;20.29;45.11;101545.97;6305480;22;45269;-78
2023/05/15 04:46:28;;;;;;;;;19.50;19.50;;;;;20.13;44.88;101512.31;6304831;22;45495;-78
2023/05/15 04:48:53;;;;;;;;;17.25;15.25;;;;;20.24;44.91;101530.59;6304690;22;46001;-78
2023/05/15 04:51:18;;;;;;;;;19.25;16.75;;;;;20.30;45.17;101542.34;6305248;22;45238;-78
2023/05/15 04:53:43;;;;;;;;;21.25;16.50;;;;;20.29;45.16;101536.25;6304691;22;45256;-79
2023/05/15 04:56:09;;;;;;;;;20.50;16.00;;;;;20.30;45.11;101537.06;6305173;22;45415;-79
2023/05/15 04:58:35;;;;;;;;;21.50;16.00;;;;;20.22;44.99;101532.53;6305221;22;45334;-79
2023/05/15 05:01:00;;;;;;;;;21.25;15.00;;;;;20.31;45.22;101540.53;6305037;22;45308;-77
2023/05/15 05:03:26;;;;;;;;;16.50;14.25;;;;;20.15;45.28;101519.09;6304800;22;45379;-78
2023/05/15 05:05:51;;;;;;;;;22.25;18.00;;;;;20.21;45.25;101522.13;6304689;22;45499;-78
2023/05/15 05:08:16;;;;;;;;;23.00;19.50;;;;;20.32;45.12;101544.84;6304850;22;45846;-78
2023/05/15 05:10:42;;;;;;;;;20.75;18.75;;;;;20.29;45.26;101545.97;6304604;22;45323;-78
2023/05/15 05:13:07;;;;;;;;;18.25;13.25;;;;;20.26;45.13;101544.47;6303117;22;45242;-79
2023/05/15 05:15:32;;;;;;;;;17.75;15.25;;;;;20.15;45.15;101524.38;6305233;22;45396;-78
2023/05/15 05:17:57;;;;;;;;;18.50;15.50;;;;;20.24;45.02;101540.31;6305169;22;45205;-77
2023/05/15 05:20:23;;;;;;;;;21.00;17.25;;;;;20.16;45.33;101530.50;6304667;22;45280;-77
2023/05/15 05:22:48;;;;;;;;;20.25;15.75;;;;;20.25;45.25;101537.50;6304849;22;45297;-80
2023/05/15 05:25:14;;;;;;;;;19.50;13.75;;;;;20.25;45.46;101537.50;6304629;22;45264;-78
2023/05/15 05:27:39;;;;;;;;;19.75;18.00;;;;;20.26;45.64;101538.34;6304740;22;45252;-77
2023/05/15 05:30:05;;;;;;;;;20.50;15.25;;;;;20.29;45.46;101538.06;6304434;22;45299;-74
2023/05/15 05:32:30;;;;;;;;;19.00;14.75;;;;;20.28;45.74;101531.09;6305031;22;45363;-75
2023/05/15 05:34:55;;;;;;;;;21.00;17.75;;;;;20.28;46.01;101509.94;6304923;22;45391;-75
2023/05/15 05:37:21;;;;;;;;;22.50;16.00;;;;;20.42;45.51;101518.31;6304419;22;45259;-75
2023/05/15 05:39:46;;;;;;;;;15.25;10.50;;;;;20.60;45.62;101528.88;6304751;22;45185;-74
2023/05/15 05:42:11;;;;;;;;;22.00;16.00;;;;;20.54;45.56;101500.41;6303870;22;45166;-76
2023/05/15 05:44:37;;;;;;;;;17.25;14.00;;;;;20.81;45.53;101525.06;6304533;22;47061;-72
2023/05/15 05:47:02;;;;;;;;;15.00;12.75;;;;;20.67;45.29;101489.41;6303367;22;57276;-74
2023/05/15 05:49:27;;;;;;;;;25.00;16.50;;;;;20.88;44.93;101515.50;6303186;22;45227;-76
2023/05/15 05:51:53;;;;;;;;;15.50;12.50;;;;;20.95;44.71;101521.00;6304165;22;45477;-75
2023/05/15 05:54:18;;;;;;;;;13.75;12.75;;;;;21.13;44.56;101534.19;6304582;22;45397;-74
2023/05/15 05:56:44;;;;;;;;;15.75;13.75;;;;;21.14;44.63;101535.88;6304183;22;45242;-74
2023/05/15 05:59:10;;;;;;;;;20.00;16.50;;;;;20.93;44.44;101510.59;6302662;22;45314;-74
2023/05/15 06:01:35;;;;;;;;;16.25;13.50;;;;;20.99;44.37;101525.00;6304339;22;45249;-73
2023/05/15 06:04:00;;;;;;;;;15.75;12.50;;;;;20.99;44.59;101534.75;6304993;22;45209;-72
2023/05/15 06:06:26;;;;;;;;;17.25;15.00;;;;;20.90;44.48;101531.22;6303892;22;46092;-75
2023/05/15 06:08:51;;;;;;;;;17.50;16.00;;;;;20.78;44.57;101520.91;6304101;22;45320;-75
2023/05/15 06:11:16;;;;;;;;;16.00;15.75;;;;;20.89;44.68;101541.00;6305079;22;45324;-75
2023/05/15 06:13:42;;;;;;;;;23.50;18.50;;;;;20.85;44.87;101540.44;6304566;22;45356;-75
2023/05/15 06:16:07;;;;;;;;;18.50;17.00;;;;;20.86;44.73;101551.88;6304131;22;46807;-75
2023/05/15 06:18:33;;;;;;;;;18.50;13.25;;;;;20.84;44.90;101551.19;6302657;22;45353;-74
2023/05/15 06:20:59;;;;;;;;;21.00;17.75;;;;;20.63;45.12;101523.28;6303992;22;45267;-75
2023/05/15 06:23:25;;;;;;;;;20.50;17.25;;;;;20.71;45.07;101541.84;6304447;22;45415;-74
2023/05/15 06:25:50;;;;;;;;;22.75;13.00;;;;;20.78;45.08;101544.72;6303971;22;46140;-74
2023/05/15 06:28:16;;;;;;;;;19.00;14.00;;;;;20.82;45.00;101558.44;6304080;22;45700;-75
2023/05/15 06:30:41;;;;;;;;;17.50;14.75;;;;;20.85;45.19;101558.97;6304923;22;45267;-75
2023/05/15 06:33:07;;;;;;;;;13.75;12.50;;;;;20.83;45.33;101533.66;6304870;22;45352;-74
2023/05/15 06:35:32;;;;;;;;;15.50;13.50;;;;;20.86;44.83;101528.06;6303699;22;46244;-77
2023/05/15 06:37:57;;;;;;;;;14.75;12.50;;;;;21.04;44.86;101546.56;6304228;22;45253;-76
2023/05/15 06:40:23;;;;;;;;;15.00;12.75;;;;;21.16;44.50;101555.06;6304329;22;45291;-74
2023/05/15 06:42:48;;;;;;;;;15.50;12.50;;;;;21.22;44.62;101553.59;6303982;22;45454;-78
2023/05/15 06:45:13;;;;;;;;;15.00;13.25;;;;;21.32;44.31;101556.13;6304742;22;46086;-78
2023/05/15 06:47:39;;;;;;;;;14.50;11.25;;;;;21.40;44.48;101556.16;6304037;22;45352;-76
2023/05/15 06:50:05;;;;;;;;;15.25;10.75;;;;;21.42;44.33;101547.25;6304189;22;45255;-76
2023/05/15 06:52:30;;;;;;;;;15.50;13.00;;;;;21.49;44.03;101543.78;6304960;22;45383;-80
2023/05/15 06:54:56;;;;;;;;;12.75;11.00;;;;;21.52;44.06;101548.75;6304777;22;47025;-80
2023/05/15 06:57:21;;;;;;;;;16.25;13.50;;;;;21.53;44.05;101546.94;6305605;22;48113;-80
2023/05/15 06:59:46;;;;;;;;;16.50;15.00;;;;;21.62;44.02;101556.56;6312374;22;45251;-80
2023/05/15 07:02:12;;;;;;;;;17.00;15.00;;;;;21.62;43.61;101553.91;6313109;22;45250;-80
2023/05/15 07:04:37;;;;;;;;;17.75;16.00;;;;;21.51;43.66;101541.00;6313981;22;45454;-80
2023/05/15 07:07:02;;;;;;;;;18.75;13.75;;;;;21.65;43.70;101562.56;6316220;22;45236;-80
2023/05/15 07:09:28;;;;;;;;;22.00;16.00;;;;;21.53;43.53;101541.66;6313133;22;45246;-80
2023/05/15 07:11:53;;;;;;;;;17.25;14.25;;;;;21.52;43.91;101546.13;6309405;22;45361;-80
2023/05/15 07:14:18;;;;;;;;;19.25;15.25;;;;;21.54;43.91;101545.13;6308382;22;50828;-79
2023/05/15 07:16:45;;;;;;;;;15.00;14.50;;;;;21.55;43.57;101549.44;6311434;22;45267;-78
2023/05/15 07:19:11;;;;;;;;;14.00;11.75;;;;;21.42;43.55;101537.47;6309333;22;45300;-80
2023/05/15 07:21:38;;;;;;;;;20.00;15.50;;;;;21.60;43.38;101563.84;6311219;22;45157;-80
2023/05/15 07:24:03;;;;;;;;;17.00;16.00;;;;;21.62;43.63;101563.72;6311138;22;48756;-80
2023/05/15 07:26:31;;;;;;;;;15.00;13.75;;;;;21.32;43.48;101512.94;6308132;22;45267;-80
2023/05/15 07:28:56;;;;;;;;;14.50;12.25;;;;;21.40;43.50;101527.06;6305788;22;45396;-79
2023/05/15 07:31:21;;;;;;;;;16.50;14.75;;;;;21.58;43.75;101555.25;6306243;22;45337;-80
2023/05/15 07:33:47;;;;;;;;;18.25;15.50;;;;;21.31;43.72;101512.13;6305081;22;45371;-80
2023/05/15 07:36:12;;;;;;;;;13.00;13.00;;;;;21.58;43.24;101549.09;6306198;22;45322;-80
2023/05/15 07:38:37;;;;;;;;;17.50;14.50;;;;;21.61;43.51;101546.97;6305580;22;45238;-79
2023/05/15 07:41:03;;;;;;;;;16.50;15.00;;;;;21.66;43.77;101553.59;6303739;22;45452;-79
2023/05/15 07:43:28;;;;;;;;;15.25;15.25;;;;;21.58;43.56;101554.41;6305822;22;45372;-79
2023/05/15 07:45:53;;;;;;;;;18.25;12.00;;;;;21.59;43.67;101550.78;6305598;22;50387;-80
2023/05/15 07:48:19;;;;;;;;;8.50;8.50;;;;;21.70;43.25;101560.25;6305608;22;45328;-79
2023/05/15 07:50:46;;;;;;;;;17.50;14.00;;;;;21.69;42.98;101559.44;6305322;22;45482;-79
2023/05/15 07:53:12;;;;;;;;;14.00;14.00;;;;;21.71;43.52;101561.91;6304262;22;48001;-79
2023/05/15 07:55:37;;;;;;;;;14.75;13.00;;;;;21.70;43.28;101561.06;6305943;22;45399;-80
2023/05/15 07:58:03;;;;;;;;;18.50;14.00;;;;;21.62;43.36;101547.81;6305819;22;45263;-79
2023/05/15 08:00:28;;;;;;;;;19.50;13.75;;;;;21.59;43.26;101538.38;6305644;22;45362;-79
2023/05/15 08:02:53;;;;;;;;;13.00;12.00;;;;;21.61;42.80;101535.56;6304558;22;45248;-79
2023/05/15 08:05:18;;;;;;;;;15.75;13.00;;;;;21.74;43.06;101561.59;6303102;22;52200;-79
2023/05/15 08:07:44;;;;;;;;;15.00;12.50;;;;;21.76;43.00;101564.06;6305992;22;45213;-80
2023/05/15 08:10:10;;;;;;;;;15.25;12.25;;;;;21.66;42.74;101543.84;6305915;22;45284;-79
2023/05/15 08:12:36;;;;;;;;;10.25;10.25;;;;;21.73;42.84;101557.25;6305247;22;46102;-79
2023/05/15 08:15:02;;;;;;;;;12.75;12.00;;;;;21.73;42.66;101552.81;6304994;22;45284;-79
2023/05/15 08:17:27;;;;;;;;;14.75;13.00;;;;;21.78;43.07;101562.91;6305397;22;45229;-79
2023/05/15 08:19:53;;;;;;;;;11.50;11.50;;;;;21.79;42.59;101555.81;6305883;22;45227;-79
2023/05/15 08:22:18;;;;;;;;;14.00;12.00;;;;;21.74;42.44;101548.34;6305545;22;45239;-80
2023/05/15 08:24:44;;;;;;;;;11.00;11.00;;;;;21.74;42.97;101543.88;6305599;22;45305;-80
2023/05/15 08:27:09;;;;;;;;;14.50;12.50;;;;;21.82;42.47;101558.97;6305818;22;45223;-78
2023/05/15 08:29:35;;;;;;;;;13.50;9.50;;;;;21.83;42.80;101560.59;6303339;22;45392;-79
2023/05/15 08:32:02;;;;;;;;;14.50;12.75;;;;;21.71;42.41;101532.78;6304708;22;46234;-79
2023/05/15 08:34:28;;;;;;;;;12.00;11.00;;;;;21.83;42.83;101551.84;6304608;22;45233;-79
2023/05/15 08:36:53;;;;;;;;;15.50;12.75;;;;;21.84;42.57;101548.19;6305334;22;45209;-79
2023/05/15 08:39:18;;;;;;;;;12.75;10.75;;;;;21.87;42.80;101547.91;6305691;22;45210;-79
2023/05/15 08:41:51;;;;;;;;;13.75;13.00;;;;;21.90;42.25;101558.19;6305375;22;50391;-79
2023/05/15 08:44:18;;;;;;;;;11.75;10.25;;;;;21.74;42.40;101528.00;6304904;22;45315;-79
2023/05/15 08:46:43;;;;;;;;;9.00;8.75;;;;;21.76;42.09;101535.75;6304524;22;45185;-79
2023/05/15 08:49:16;;;;;;;;;14.25;13.00;;;;;21.90;42.02;101557.34;6304888;22;45270;-79
2023/05/15 08:51:42;;;;;;;;;12.25;12.25;;;;;21.80;42.32;101545.06;6304892;22;46533;-79
2023/05/15 08:54:07;;;;;;;;;11.00;10.50;;;;;21.91;42.08;101561.69;6304616;22;45192;-79
2023/05/15 08:56:33;;;;;;;;;12.00;12.00;;;;;21.84;42.09;101554.34;6305444;22;45265;-79
2023/05/15 08:58:58;;;;;;;;;12.00;12.00;;;;;21.79;42.47;101542.56;6305735;22;45395;-79
2023/05/15 09:01:24;;;;;;;;;14.50;14.00;;;;;21.94;42.44;101558.69;6304717;22;46295;-79
2023/05/15 09:03:50;;;;;;;;;11.75;10.25;;;;;21.89;42.21;101556.53;6304536;22;45308;-79
2023/05/15 09:06:17;;;;;;;;;11.00;10.50;;;;;21.87;42.34;101545.25;6305202;22;45385;-79
2023/05/15 09:08:42;;;;;;;;;11.75;11.75;;;;;21.84;42.42;101541.09;6305243;22;45328;-79
2023/05/15 09:11:09;;;;;;;;;12.25;10.00;;;;;21.83;42.07;101542.06;6305071;22;47169;-79
2023/05/15 09:13:34;;;;;;;;;11.25;9.50;;;;;21.94;42.60;101562.16;6303609;22;45311;-79
2023/05/15 09:16:00;;;;;;;;;15.50;11.00;;;;;21.93;42.21;101555.22;6305019;22;45502;-79
2023/05/15 09:18:25;;;;;;;;;11.75;9.75;;;;;21.95;42.37;101560.34;6304936;22;45281;-79
2023/05/15 09:20:51;;;;;;;;;13.50;12.00;;;;;21.88;41.68;101548.75;6304749;22;46192;-79
2023/05/15 09:23:25;;;;;;;;;10.75;10.25;;;;;21.96;42.19;101565.47;6305260;22;45268;-79
2023/05/15 09:25:52;;;;;;;;;10.25;8.50;;;;;21.90;42.08;101554.72;6303570;22;45438;-79
2023/05/15 09:28:29;;;;;;;;;13.25;11.75;;;;;21.95;41.88;101563.00;6304700;22;45401;-79
2023/05/15 09:31:01;;;;;;;;;9.00;9.00;;;;;21.95;42.26;101568.31;6304000;22;46106;-79
2023/05/15 09:33:31;;;;;;;;;12.00;9.50;;;;;21.93;41.67;101562.34;6304814;22;45265;-79
2023/05/15 09:35:57;;;;;;;;;11.75;11.25;;;;;21.90;41.61;101560.84;6304817;22;45299;-79
2023/05/15 09:38:22;;;;;;;;;10.00;9.00;;;;;21.98;42.24;101567.16;6304798;22;45413;-80
2023/05/15 09:40:47;;;;;;;;;10.25;9.75;;;;;21.88;42.12;101548.75;6302785;22;45956;-79
2023/05/15 09:43:12;;;;;;;;;10.00;10.00;;;;;21.87;41.87;101553.22;6304360;22;45303;-79
2023/05/15 09:45:38;;;;;;;;;11.50;10.00;;;;;22.00;41.65;101571.28;6304765;22;45333;-79
2023/05/15 09:48:05;;;;;;;;;8.25;7.50;;;;;22.02;42.16;101566.66;6304964;22;45508;-79
2023/05/15 09:50:36;;;;;;;;;12.50;9.00;;;;;22.04;41.76;101572.63;6304301;22;46153;-79
2023/05/15 09:53:01;;;;;;;;;7.25;7.25;;;;;22.05;41.75;101573.44;6304734;22;45335;-78
2023/05/15 09:55:27;;;;;;;;;12.00;10.00;;;;;22.06;42.06;101568.00;6305113;22;45337;-80
2023/05/15 09:58:10;;;;;;;;;11.25;10.00;;;;;22.09;42.21;101568.66;6304572;22;45188;-79
2023/05/15 10:00:37;;;;;;;;;11.25;8.50;;;;;21.95;41.96;101550.59;6305896;22;46359;-79
2023/05/15 10:03:07;;;;;;;;;10.25;9.75;;;;;22.10;42.32;101573.78;6305399;22;45311;-80
2023/05/15 10:05:33;;;;;;;;;10.00;9.50;;;;;22.05;41.78;101560.19;6305463;22;45240;-80
2023/05/15 10:07:59;;;;;;;;;11.50;10.25;;;;;22.11;41.73;101566.69;6305539;22;45507;-79
2023/05/15 10:10:26;;;;;;;;;9.50;9.50;;;;;22.16;42.38;101577.63;6305043;22;45978;-80
2023/05/15 10:12:53;;;;;;;;;12.25;11.25;;;;;22.15;41.75;101574.13;6305278;22;45300;-79
2023/05/15 10:15:21;;;;;;;;;11.25;11.00;;;;;22.17;41.63;101571.34;6305535;22;45305;-79
2023/05/15 10:17:48;;;;;;;;;11.00;9.50;;;;;22.17;41.79;101572.13;6303007;22;45446;-79
2023/05/15 10:20:18;;;;;;;;;12.00;11.50;;;;;22.18;41.65;101572.97;6305314;22;45336;-79
2023/05/15 10:22:52;;;;;;;;;13.00;12.00;;;;;22.10;41.85;101560.53;6304914;22;45253;-79
2023/05/15 10:25:26;;;;;;;;;10.00;9.75;;;;;22.04;42.29;101555.91;6306349;22;45333;-79
2023/05/15 10:27:52;;;;;;;;;11.75;10.75;;;;;22.21;41.62;101574.47;6304088;22;45339;-80
2023/05/15 10:30:19;;;;;;;;;9.50;9.00;;;;;22.17;42.38;101574.78;6305065;22;45253;-80
2023/05/15 10:32:44;;;;;;;;;10.25;10.00;;;;;22.12;41.99;101571.81;6304825;22;45381;-79
2023/05/15 10:35:11;;;;;;;;;11.50;10.00;;;;;22.10;41.71;101563.19;6304616;22;45664;-79
2023/05/15 10:37:38;;;;;;;;;10.50;9.00;;;;;22.18;41.52;101571.16;6305027;22;45202;-79
2023/05/15 10:40:07;;;;;;;;;10.75;8.00;;;;;22.21;41.78;101569.16;6304751;22;46018;-79
2023/05/15 10:42:33;;;;;;;;;10.75;10.50;;;;;22.22;41.62;101576.97;6303861;22;45307;-79
2023/05/15 10:45:01;;;;;;;;;10.00;9.25;;;;;22.23;41.57;101573.31;6305728;22;45241;-79
2023/05/15 10:47:28;;;;;;;;;8.00;7.75;;;;;22.15;41.68;101557.38;6308840;22;45329;-79
2023/05/15 10:49:54;;;;;;;;;8.25;8.00;;;;;22.12;41.63;101557.75;6308599;22;47243;-79
2023/05/15 10:52:19;;;;;;;;;6.75;6.75;;;;;22.26;41.68;101588.06;6307497;22;45316;-79
2023/05/15 10:54:45;;;;;;;;;10.50;7.75;;;;;22.16;41.98;101567.00;6306981;22;45289;-79
2023/05/15 10:57:10;;;;;;;;;7.33;7.33;;;;;22.18;42.05;101581.75;6306728;22;45337;-79
2023/05/15 10:59:35;;;;;;;;;7.75;7.75;;;;;22.21;41.91;101575.31;6308133;22;46087;-79
2023/05/15 11:02:24;;;;;;;;;9.00;8.33;;;;;22.24;41.95;101587.41;6308913;22;45347;-79
2023/05/15 11:05:00;;;;;;;;;11.00;9.50;;;;;22.16;42.04;101582.91;6306927;22;45256;-80
2023/05/15 11:07:27;;;;;;;;;6.50;6.00;;;;;22.13;41.67;101572.63;6306503;22;45392;-79